createdAt,value
2018-08-06T00:01:09.315Z,22.40
2018-08-06T00:03:39.740Z,22.30
2018-08-06T00:06:30.447Z,22.20
2018-08-06T00:09:00.857Z,22.30
2018-08-06T00:11:31.238Z,22.30
2018-08-06T00:14:02.399Z,22.30
2018-08-06T00:16:32.820Z,22.30
2018-08-06T00:19:03.204Z,22.30
2018-08-06T00:21:33.608Z,22.30
2018-08-06T00:24:04.002Z,22.20
2018-08-06T00:26:34.384Z,22.10
2018-08-06T00:29:04.786Z,22.10
2018-08-06T00:31:35.196Z,22.10
2018-08-06T00:34:05.576Z,22.10
2018-08-06T00:36:35.970Z,22.00
2018-08-06T00:39:13.701Z,21.90
2018-08-06T00:41:44.088Z,22.00
2018-08-06T00:44:14.486Z,21.90
2018-08-06T00:46:45.665Z,21.90
2018-08-06T00:49:17.074Z,21.80
2018-08-06T00:51:47.433Z,21.80
2018-08-06T00:54:17.847Z,21.80
2018-08-06T00:56:48.229Z,21.80
2018-08-06T00:59:18.618Z,21.80
2018-08-06T01:01:50.048Z,21.80
2018-08-06T01:04:20.449Z,21.80
2018-08-06T01:06:51.589Z,21.80
2018-08-06T01:09:22.015Z,21.80
2018-08-06T01:11:52.398Z,21.90
2018-08-06T01:14:22.783Z,21.90
2018-08-06T01:16:53.202Z,21.80
2018-08-06T01:19:23.602Z,21.70
2018-08-06T01:21:53.999Z,21.60
2018-08-06T01:24:24.418Z,21.60
2018-08-06T01:26:54.824Z,21.70
2018-08-06T01:29:25.214Z,21.60
2018-08-06T01:31:55.616Z,21.60
2018-08-06T01:34:25.997Z,21.60
2018-08-06T01:36:57.162Z,21.50
2018-08-06T01:39:27.504Z,21.50
2018-08-06T01:42:00.144Z,21.60
2018-08-06T01:44:30.461Z,21.50
2018-08-06T01:47:01.655Z,21.40
2018-08-06T01:49:31.980Z,21.40
2018-08-06T01:52:09.714Z,21.40
2018-08-06T01:54:40.096Z,21.50
2018-08-06T01:57:10.494Z,21.50
2018-08-06T01:59:41.684Z,21.30
2018-08-06T02:02:13.082Z,21.30
2018-08-06T02:04:44.229Z,21.20
2018-08-06T02:07:15.406Z,21.30
2018-08-06T02:09:45.804Z,21.20
2018-08-06T02:12:16.966Z,21.20
2018-08-06T02:14:47.373Z,21.20
2018-08-06T02:17:17.769Z,21.10
2018-08-06T02:19:48.154Z,21.00
2018-08-06T02:22:18.620Z,20.80
2018-08-06T02:24:49.007Z,21.00
2018-08-06T02:27:19.407Z,21.10
2018-08-06T02:29:49.811Z,21.10
2018-08-06T02:35:09.298Z,21.00
2018-08-06T02:37:40.318Z,21.00
2018-08-06T02:40:10.718Z,21.00
2018-08-06T02:42:41.137Z,21.00
2018-08-06T02:45:11.527Z,21.00
2018-08-06T02:47:41.922Z,20.90
2018-08-06T02:50:31.720Z,20.90
2018-08-06T02:53:02.112Z,20.90
2018-08-06T02:55:32.504Z,20.90
2018-08-06T02:58:03.688Z,20.90
2018-08-06T03:00:34.094Z,20.80
2018-08-06T03:03:04.495Z,20.90
2018-08-06T03:05:34.914Z,20.90
2018-08-06T03:08:05.299Z,20.90
2018-08-06T03:10:36.390Z,20.80
2018-08-06T03:13:06.816Z,20.70
2018-08-06T03:15:37.214Z,20.70
2018-08-06T03:18:11.883Z,20.60
2018-08-06T03:20:42.313Z,20.70
2018-08-06T03:23:12.717Z,20.70
2018-08-06T03:25:43.108Z,20.60
2018-08-06T03:28:13.532Z,20.60
2018-08-06T03:30:45.976Z,20.60
2018-08-06T03:33:17.141Z,20.60
2018-08-06T03:35:47.565Z,20.60
2018-08-06T03:38:17.950Z,20.50
2018-08-06T03:40:48.342Z,20.50
2018-08-06T03:43:18.753Z,20.30
2018-08-06T03:45:49.132Z,20.40
2018-08-06T03:48:19.523Z,20.40
2018-08-06T03:50:49.946Z,20.50
2018-08-06T03:53:27.828Z,20.50
2018-08-06T03:55:58.245Z,20.60
2018-08-06T03:58:28.636Z,20.40
2018-08-06T04:00:59.039Z,20.50
2018-08-06T04:03:30.482Z,20.50
2018-08-06T04:06:22.032Z,20.40
2018-08-06T04:08:52.456Z,20.50
2018-08-06T04:11:22.844Z,20.30
2018-08-06T04:13:53.246Z,20.40
2018-08-06T04:16:24.437Z,19.90
2018-08-06T04:19:14.133Z,20.00
2018-08-06T04:21:44.551Z,20.10
2018-08-06T04:24:15.960Z,20.10
2018-08-06T04:26:46.347Z,20.00
2018-08-06T04:29:17.796Z,19.80
2018-08-06T04:31:48.191Z,19.90
2018-08-06T04:34:22.673Z,20.00
2018-08-06T04:36:53.865Z,20.00
2018-08-06T04:39:43.810Z,20.00
2018-08-06T04:42:14.241Z,19.90
2018-08-06T04:44:44.570Z,20.00
2018-08-06T04:47:14.956Z,19.90
2018-08-06T04:49:45.401Z,20.00
2018-08-06T04:52:16.567Z,19.90
2018-08-06T04:54:46.960Z,19.90
2018-08-06T04:57:17.407Z,19.90
2018-08-06T04:59:47.839Z,20.00
2018-08-06T05:02:18.193Z,19.90
2018-08-06T05:04:52.722Z,19.90
2018-08-06T05:07:23.114Z,20.00
2018-08-06T05:09:54.271Z,20.10
2018-08-06T05:12:24.685Z,20.10
2018-08-06T05:14:55.846Z,20.20
2018-08-06T05:17:26.224Z,20.20
2018-08-06T05:19:56.653Z,20.10
2018-08-06T05:22:27.034Z,20.00
2018-08-06T05:24:57.436Z,19.80
2018-08-06T05:27:27.858Z,19.80
2018-08-06T05:29:59.206Z,20.00
2018-08-06T05:32:30.261Z,20.00
2018-08-06T05:35:00.684Z,20.10
2018-08-06T05:37:31.841Z,20.20
2018-08-06T05:40:02.254Z,20.20
2018-08-06T05:42:32.647Z,20.30
2018-08-06T05:45:03.046Z,20.30
2018-08-06T05:47:33.427Z,20.30
2018-08-06T05:50:04.614Z,20.10
2018-08-06T05:52:40.130Z,20.10
2018-08-06T05:55:10.543Z,20.30
2018-08-06T05:57:41.737Z,20.50
2018-08-06T06:00:16.210Z,20.40
2018-08-06T06:02:47.333Z,20.60
2018-08-06T06:05:17.663Z,20.70
2018-08-06T06:07:48.049Z,20.40
2018-08-06T06:10:22.553Z,20.40
2018-08-06T06:12:52.958Z,20.40
2018-08-06T06:15:23.341Z,20.60
2018-08-06T06:17:59.892Z,20.80
2018-08-06T06:20:32.327Z,20.80
2018-08-06T06:23:02.708Z,20.80
2018-08-06T06:25:51.516Z,20.80
2018-08-06T06:28:22.635Z,20.60
2018-08-06T06:30:54.710Z,20.60
2018-08-06T06:33:25.138Z,20.90
2018-08-06T06:35:55.529Z,21.10
2018-08-06T06:38:25.914Z,21.00
2018-08-06T06:43:43.931Z,21.50
2018-08-06T06:46:14.343Z,21.80
2018-08-06T06:48:44.748Z,21.90
2018-08-06T06:51:15.126Z,21.90
2018-08-06T06:53:45.539Z,22.30
2018-08-06T06:56:15.923Z,22.50
2018-08-06T06:58:46.320Z,22.70
2018-08-06T07:01:17.508Z,22.70
2018-08-06T07:03:47.889Z,22.70
2018-08-06T07:06:18.480Z,22.80
2018-08-06T07:08:48.847Z,22.90
2018-08-06T07:11:19.988Z,23.60
2018-08-06T07:13:51.244Z,23.70
2018-08-06T07:16:22.303Z,23.80
2018-08-06T07:18:52.625Z,23.80
2018-08-06T07:21:22.949Z,23.80
2018-08-06T07:23:53.370Z,24.00
2018-08-06T07:26:24.534Z,24.30
2018-08-06T07:28:54.924Z,24.20
2018-08-06T07:31:25.352Z,24.20
2018-08-06T07:33:56.515Z,23.90
2018-08-06T07:36:26.910Z,23.90
2018-08-06T07:38:57.333Z,23.80
2018-08-06T07:41:27.725Z,23.90
2018-08-06T07:43:58.126Z,24.00
2018-08-06T07:46:28.534Z,24.10
2018-08-06T07:48:59.675Z,24.20
2018-08-06T07:51:30.840Z,24.20
2018-08-06T07:54:01.243Z,24.20
2018-08-06T07:56:32.398Z,24.30
2018-08-06T07:59:02.796Z,24.20
2018-08-06T08:01:33.207Z,24.40
2018-08-06T08:04:05.836Z,24.20
2018-08-06T08:06:36.229Z,24.50
2018-08-06T08:09:06.647Z,24.80
2018-08-06T08:11:37.033Z,25.00
2018-08-06T08:14:07.440Z,25.30
2018-08-06T08:16:38.616Z,25.20
2018-08-06T08:19:09.019Z,25.20
2018-08-06T08:21:40.100Z,25.50
2018-08-06T08:24:16.688Z,25.50
2018-08-06T08:26:53.201Z,25.80
2018-08-06T08:29:24.385Z,26.10
2018-08-06T08:31:54.775Z,26.10
2018-08-06T08:34:25.166Z,26.00
2018-08-06T08:36:55.583Z,26.10
2018-08-06T08:39:25.981Z,26.30
2018-08-06T08:41:57.386Z,26.60
2018-08-06T08:44:28.565Z,26.90
2018-08-06T08:46:58.956Z,26.80
2018-08-06T08:49:29.330Z,26.90
2018-08-06T08:51:59.761Z,27.10
2018-08-06T08:54:32.185Z,27.00
2018-08-06T08:57:02.562Z,27.10
2018-08-06T08:59:35.028Z,27.20
2018-08-06T09:02:05.424Z,27.40
2018-08-06T09:04:36.569Z,27.50
2018-08-06T09:07:07.004Z,27.40
2018-08-06T09:09:38.172Z,27.00
2018-08-06T09:12:08.568Z,27.00
2018-08-06T09:14:39.853Z,27.30
2018-08-06T09:17:11.264Z,27.30
2018-08-06T09:19:42.410Z,27.60
2018-08-06T09:22:13.588Z,27.70
2018-08-06T09:24:46.017Z,27.70
2018-08-06T09:27:16.422Z,27.60
2018-08-06T09:29:46.830Z,27.40
2018-08-06T09:32:36.334Z,27.10
2018-08-06T09:35:06.742Z,27.10
2018-08-06T09:37:37.131Z,27.50
2018-08-06T09:40:07.507Z,27.50
2018-08-06T09:42:37.920Z,27.70
2018-08-06T09:45:08.313Z,27.90
2018-08-06T09:47:38.880Z,27.70
2018-08-06T09:50:09.284Z,28.00
2018-08-06T09:52:39.676Z,28.10
2018-08-06T09:55:11.852Z,28.30
2018-08-06T09:57:42.264Z,28.30
2018-08-06T10:00:13.430Z,28.10
2018-08-06T10:02:44.514Z,28.10
2018-08-06T10:05:34.316Z,28.10
2018-08-06T10:08:04.680Z,28.40
2018-08-06T10:10:35.072Z,28.50
2018-08-06T10:13:05.498Z,28.50
2018-08-06T10:15:35.890Z,28.40
2018-08-06T10:18:14.347Z,28.70
2018-08-06T10:20:44.670Z,28.50
2018-08-06T10:23:15.050Z,28.40
2018-08-06T10:25:46.494Z,28.50
2018-08-06T10:28:16.885Z,28.40
2018-08-06T10:30:48.039Z,28.40
2018-08-06T10:33:19.231Z,28.30
2018-08-06T10:35:55.762Z,28.30
2018-08-06T10:38:26.154Z,28.40
2018-08-06T10:40:56.590Z,28.50
2018-08-06T10:43:26.984Z,28.60
2018-08-06T10:45:57.366Z,28.60
2018-08-06T10:48:28.610Z,28.60
2018-08-06T10:51:03.035Z,28.60
2018-08-06T10:53:33.414Z,28.50
2018-08-06T10:56:03.925Z,28.60
2018-08-06T10:58:34.304Z,28.80
2018-08-06T11:01:05.462Z,29.10
2018-08-06T11:06:24.007Z,28.70
2018-08-06T11:08:54.467Z,29.00
2018-08-06T11:11:25.773Z,29.20
2018-08-06T11:13:56.221Z,28.90
2018-08-06T11:16:26.602Z,29.00
2018-08-06T11:19:16.100Z,29.30
2018-08-06T11:21:46.544Z,29.20
2018-08-06T11:24:16.948Z,29.10
2018-08-06T11:26:47.333Z,29.10
2018-08-06T11:29:17.744Z,29.00
2018-08-06T11:31:48.905Z,29.30
2018-08-06T11:34:20.009Z,29.30
2018-08-06T11:36:50.489Z,29.20
2018-08-06T11:39:20.804Z,29.30
2018-08-06T11:41:51.202Z,29.40
2018-08-06T11:44:22.388Z,29.40
2018-08-06T11:46:52.780Z,29.50
2018-08-06T11:49:23.185Z,29.50
2018-08-06T11:51:53.603Z,29.80
2018-08-06T11:54:23.995Z,29.60
2018-08-06T11:56:58.494Z,29.70
2018-08-06T11:59:29.077Z,29.70
2018-08-06T12:01:59.485Z,29.70
2018-08-06T12:04:29.965Z,29.70
2018-08-06T12:07:00.294Z,29.60
2018-08-06T12:09:31.449Z,29.90
2018-08-06T12:12:01.871Z,29.90
2018-08-06T12:14:32.273Z,30.00
2018-08-06T12:17:02.660Z,30.00
2018-08-06T12:19:52.445Z,29.90
2018-08-06T12:22:41.178Z,30.10
2018-08-06T12:25:11.584Z,29.90
2018-08-06T12:27:42.744Z,30.20
2018-08-06T12:30:13.130Z,30.20
2018-08-06T12:32:43.549Z,30.00
2018-08-06T12:35:13.926Z,30.00
2018-08-06T12:37:44.322Z,29.90
2018-08-06T12:40:14.741Z,30.10
2018-08-06T12:42:45.128Z,30.00
2018-08-06T12:45:21.691Z,30.00
2018-08-06T12:47:52.090Z,29.80
2018-08-06T12:50:22.487Z,30.00
2018-08-06T12:52:53.094Z,30.10
2018-08-06T12:55:26.480Z,30.20
2018-08-06T12:57:58.909Z,30.10
2018-08-06T13:00:30.096Z,30.30
2018-08-06T13:03:00.501Z,30.30
2018-08-06T13:05:30.887Z,30.60
2018-08-06T13:08:01.244Z,30.70
2018-08-06T13:10:32.399Z,30.50
2018-08-06T13:13:02.713Z,30.50
2018-08-06T13:15:33.136Z,30.40
2018-08-06T13:18:03.598Z,30.50
2018-08-06T13:20:33.903Z,30.40
2018-08-06T13:23:04.339Z,30.60
2018-08-06T13:25:34.663Z,30.60
2018-08-06T13:28:05.042Z,30.60
2018-08-06T13:30:35.467Z,30.50
2018-08-06T13:33:05.879Z,30.40
2018-08-06T13:35:36.268Z,30.30
2018-08-06T13:38:06.672Z,30.20
2018-08-06T13:40:37.836Z,30.20
2018-08-06T13:43:08.217Z,30.20
2018-08-06T13:45:38.638Z,30.30
2018-08-06T13:48:09.015Z,30.50
2018-08-06T13:50:39.424Z,30.50
2018-08-06T13:53:10.653Z,30.40
2018-08-06T13:55:40.953Z,30.40
2018-08-06T13:58:11.336Z,30.30
2018-08-06T14:00:41.762Z,30.40
2018-08-06T14:03:12.151Z,30.40
2018-08-06T14:05:42.560Z,30.30
2018-08-06T14:08:12.997Z,30.40
2018-08-06T14:10:43.378Z,30.50
2018-08-06T14:13:13.778Z,30.30
2018-08-06T14:15:44.972Z,30.00
2018-08-06T14:18:34.920Z,30.00
2018-08-06T14:21:06.087Z,30.20
2018-08-06T14:23:36.488Z,30.20
2018-08-06T14:26:08.292Z,30.10
2018-08-06T14:28:42.729Z,30.10
2018-08-06T14:31:13.126Z,30.00
2018-08-06T14:33:43.422Z,30.20
2018-08-06T14:36:14.603Z,30.20
2018-08-06T14:38:44.985Z,30.20
2018-08-06T14:41:16.144Z,30.30
2018-08-06T14:43:46.740Z,30.40
2018-08-06T14:46:17.128Z,30.50
2018-08-06T14:48:47.512Z,30.40
2018-08-06T14:51:18.689Z,30.20
2018-08-06T14:53:49.249Z,30.20
2018-08-06T14:56:25.795Z,30.30
2018-08-06T14:58:56.193Z,30.30
2018-08-06T15:01:28.033Z,30.20
2018-08-06T15:03:58.453Z,30.20
2018-08-06T15:06:28.845Z,30.00
2018-08-06T15:11:53.059Z,29.90
2018-08-06T15:14:43.861Z,29.90
2018-08-06T15:17:15.282Z,30.00
2018-08-06T15:19:46.307Z,30.10
2018-08-06T15:22:16.720Z,30.10
2018-08-06T15:24:47.887Z,30.10
2018-08-06T15:27:18.214Z,30.10
2018-08-06T15:29:48.652Z,30.10
2018-08-06T15:32:19.032Z,29.90
2018-08-06T15:34:49.429Z,30.00
2018-08-06T15:37:26.010Z,30.20
2018-08-06T15:39:56.368Z,30.30
2018-08-06T15:42:26.751Z,30.50
2018-08-06T15:44:57.164Z,30.30
2018-08-06T15:47:27.555Z,30.10
2018-08-06T15:49:57.945Z,30.10
2018-08-06T15:52:29.401Z,30.00
2018-08-06T15:54:59.728Z,30.20
2018-08-06T15:57:30.134Z,30.10
2018-08-06T16:00:07.702Z,30.20
2018-08-06T16:02:38.095Z,30.30
2018-08-06T16:05:08.496Z,30.30
2018-08-06T16:07:38.925Z,30.40
2018-08-06T16:10:09.371Z,30.40
2018-08-06T16:12:39.684Z,30.30
2018-08-06T16:15:10.079Z,30.10
2018-08-06T16:17:43.537Z,30.10
2018-08-06T16:20:13.936Z,30.10
2018-08-06T16:22:44.355Z,30.10
2018-08-06T16:25:14.729Z,30.00
2018-08-06T16:27:45.892Z,29.90
2018-08-06T16:30:16.311Z,29.90
2018-08-06T16:32:46.702Z,29.90
2018-08-06T16:35:17.016Z,29.80
2018-08-06T16:37:47.459Z,29.90
2018-08-06T16:40:17.831Z,29.70
2018-08-06T16:42:48.226Z,29.70
2018-08-06T16:45:18.648Z,29.70
2018-08-06T16:47:49.807Z,29.70
2018-08-06T16:50:20.213Z,29.70
2018-08-06T16:52:51.742Z,29.60
2018-08-06T16:55:22.069Z,29.60
2018-08-06T16:57:52.462Z,29.60
2018-08-06T17:00:22.936Z,29.50
2018-08-06T17:02:53.441Z,29.30
2018-08-06T17:05:23.840Z,29.30
2018-08-06T17:07:54.284Z,29.20
2018-08-06T17:10:24.665Z,29.20
2018-08-06T17:12:55.833Z,29.20
2018-08-06T17:15:26.262Z,29.10
2018-08-06T17:17:56.591Z,29.10
2018-08-06T17:20:26.977Z,29.10
2018-08-06T17:22:57.317Z,29.10
2018-08-06T17:25:28.470Z,29.10
2018-08-06T17:27:58.868Z,29.10
2018-08-06T17:30:29.295Z,29.10
2018-08-06T17:32:59.678Z,29.00
2018-08-06T17:35:32.125Z,28.80
2018-08-06T17:38:03.320Z,28.90
2018-08-06T17:40:33.700Z,28.90
2018-08-06T17:43:04.079Z,28.90
2018-08-06T17:45:35.500Z,28.90
2018-08-06T17:48:07.936Z,28.90
2018-08-06T17:50:39.118Z,28.90
2018-08-06T17:53:09.458Z,28.90
2018-08-06T17:56:01.260Z,28.90
2018-08-06T17:58:31.680Z,28.90
2018-08-06T18:01:01.995Z,28.90
2018-08-06T18:03:33.146Z,28.80
2018-08-06T18:06:03.581Z,28.80
2018-08-06T18:08:33.969Z,28.80
2018-08-06T18:11:06.882Z,28.70
2018-08-06T18:13:38.072Z,28.70
2018-08-06T18:16:10.437Z,28.70
2018-08-06T18:18:40.830Z,28.60
2018-08-06T18:21:11.253Z,28.50
2018-08-06T18:23:41.651Z,28.40
2018-08-06T18:26:12.026Z,28.30
2018-08-06T18:28:42.375Z,28.30
2018-08-06T18:31:34.187Z,28.30
2018-08-06T18:34:07.682Z,28.30
2018-08-06T18:39:26.257Z,28.20
2018-08-06T18:41:56.641Z,28.20
2018-08-06T18:44:27.811Z,28.30
2018-08-06T18:47:00.891Z,28.20
2018-08-06T18:49:32.046Z,28.30
2018-08-06T18:52:02.463Z,28.30
2018-08-06T18:54:33.641Z,28.30
2018-08-06T18:57:11.198Z,28.30
2018-08-06T18:59:41.611Z,28.30
2018-08-06T19:02:13.465Z,28.10
2018-08-06T19:04:43.860Z,28.10
2018-08-06T19:07:16.309Z,28.00
2018-08-06T19:09:46.780Z,28.10
2018-08-06T19:12:17.853Z,27.90
2018-08-06T19:14:49.048Z,27.90
2018-08-06T19:17:22.099Z,27.90
2018-08-06T19:19:52.437Z,27.80
2018-08-06T19:22:26.190Z,28.00
2018-08-06T19:24:56.585Z,27.90
2018-08-06T19:27:26.970Z,27.90
2018-08-06T19:30:00.662Z,27.80
2018-08-06T19:32:31.036Z,27.80
2018-08-06T19:35:01.429Z,27.70
2018-08-06T19:37:32.617Z,27.60
2018-08-06T19:40:05.048Z,27.60
2018-08-06T19:42:35.445Z,27.60
2018-08-06T19:45:05.852Z,27.50
2018-08-06T19:47:36.252Z,27.40
2018-08-06T19:50:06.633Z,27.30
2018-08-06T19:52:37.042Z,27.20
2018-08-06T19:55:07.446Z,27.20
2018-08-06T19:57:37.833Z,27.10
2018-08-06T20:00:10.049Z,27.00
2018-08-06T20:02:40.428Z,26.90
2018-08-06T20:05:10.833Z,26.90
2018-08-06T20:07:41.259Z,26.90
2018-08-06T20:10:11.553Z,26.90
2018-08-06T20:12:42.634Z,26.90
2018-08-06T20:15:13.067Z,26.90
2018-08-06T20:17:43.465Z,26.80
2018-08-06T20:20:14.879Z,26.70
2018-08-06T20:22:45.301Z,26.60
2018-08-06T20:25:15.697Z,26.60
2018-08-06T20:27:46.010Z,26.50
2018-08-06T20:30:16.431Z,26.50
2018-08-06T20:32:46.823Z,26.50
2018-08-06T20:35:18.307Z,26.40
2018-08-06T20:37:48.611Z,26.40
2018-08-06T20:40:19.010Z,26.30
2018-08-06T20:42:52.395Z,26.20
2018-08-06T20:45:23.499Z,26.00
2018-08-06T20:47:53.900Z,25.90
2018-08-06T20:50:31.469Z,25.80
2018-08-06T20:53:01.861Z,25.80
2018-08-06T20:55:32.253Z,25.70
2018-08-06T20:58:02.593Z,25.70
2018-08-06T21:00:32.988Z,25.80
2018-08-06T21:03:03.364Z,25.60
2018-08-06T21:05:33.736Z,25.60
2018-08-06T21:08:05.333Z,25.60
2018-08-06T21:10:35.712Z,25.60
2018-08-06T21:13:06.310Z,25.40
2018-08-06T21:15:36.699Z,25.40
2018-08-06T21:18:14.361Z,25.50
2018-08-06T21:20:44.747Z,25.70
2018-08-06T21:23:15.147Z,25.50
2018-08-06T21:26:04.938Z,25.50
2018-08-06T21:28:35.384Z,25.10
2018-08-06T21:31:05.724Z,24.90
2018-08-06T21:33:36.148Z,25.00
2018-08-06T21:36:06.465Z,24.80
2018-08-06T21:38:36.787Z,25.00
2018-08-06T21:41:07.202Z,25.10
2018-08-06T21:43:37.591Z,25.30
2018-08-06T21:46:08.004Z,25.30
2018-08-06T21:48:40.228Z,25.40
2018-08-06T21:51:10.614Z,25.40
2018-08-06T21:53:41.012Z,25.40
2018-08-06T21:56:12.393Z,25.60
2018-08-06T21:58:42.801Z,25.50
2018-08-06T22:01:13.389Z,25.50
2018-08-06T22:03:45.831Z,25.70
2018-08-06T22:06:17.186Z,25.70
2018-08-06T22:08:47.583Z,25.70
2018-08-06T22:11:18.026Z,25.70
2018-08-06T22:13:48.345Z,25.50
2018-08-06T22:16:18.758Z,25.40
2018-08-06T22:18:50.057Z,25.50
2018-08-06T22:21:24.419Z,25.50
2018-08-06T22:23:54.810Z,25.60
2018-08-06T22:26:25.163Z,25.50
2018-08-06T22:28:55.556Z,25.30
2018-08-06T22:31:26.603Z,25.20
2018-08-06T22:33:57.098Z,25.30
2018-08-06T22:36:27.421Z,25.30
2018-08-06T22:38:57.817Z,25.30
2018-08-06T22:41:29.002Z,25.20
2018-08-06T22:43:59.322Z,25.20
2018-08-06T22:46:29.704Z,25.00
2018-08-06T22:49:00.126Z,25.00
2018-08-06T22:51:30.519Z,25.00
2018-08-06T22:54:20.032Z,25.10
2018-08-06T22:56:50.423Z,25.10
2018-08-06T22:59:21.849Z,25.10
2018-08-06T23:01:52.269Z,24.90
2018-08-06T23:04:22.641Z,24.90
2018-08-06T23:09:42.191Z,24.90
2018-08-06T23:12:12.580Z,24.80
2018-08-06T23:14:42.910Z,24.80
2018-08-06T23:17:13.271Z,24.60
2018-08-06T23:19:43.650Z,24.70
2018-08-06T23:22:14.045Z,24.80
2018-08-06T23:24:51.632Z,24.80
2018-08-06T23:27:22.042Z,24.70
2018-08-06T23:29:52.423Z,24.80
2018-08-06T23:32:22.856Z,24.70
2018-08-06T23:34:53.250Z,24.70
2018-08-06T23:37:23.630Z,24.70
2018-08-06T23:39:55.826Z,24.70
2018-08-06T23:42:26.210Z,24.70
2018-08-06T23:44:56.605Z,24.60
2018-08-06T23:47:31.107Z,24.60
2018-08-06T23:50:01.506Z,24.50
2018-08-06T23:52:32.672Z,24.60
2018-08-06T23:55:03.090Z,24.60
2018-08-06T23:57:33.412Z,24.60
